createdAt,value
2022-11-29T05:48:21.965Z,101052.78
2022-11-29T05:53:35.316Z,101064.84
2022-11-29T05:58:56.805Z,101040.94
2022-11-29T06:04:04.580Z,101055.41
2022-11-29T06:09:17.685Z,101061.94
2022-11-29T06:14:41.499Z,101059.44
2022-11-29T06:20:13.364Z,101081.63
2022-11-29T06:25:17.118Z,101083.78
2022-11-29T06:30:30.046Z,101082.03
2022-11-29T06:35:45.844Z,101084.91
2022-11-29T06:40:48.723Z,101091.06
2022-11-29T06:45:54.230Z,101090.56
2022-11-29T06:51:08.536Z,101090.41
2022-11-29T06:56:25.346Z,101097.78
2022-11-29T07:01:30.360Z,101087.69
2022-11-29T07:06:35.084Z,101100.88
2022-11-29T07:11:37.663Z,101086.84
2022-11-29T07:17:09.503Z,101087.34
2022-11-29T07:22:24.889Z,101084.78
2022-11-29T07:27:42.071Z,101092.75
2022-11-29T07:33:12.089Z,101109.13
2022-11-29T07:38:20.149Z,101097.31
2022-11-29T07:43:52.713Z,101104.87
2022-11-29T07:48:55.147Z,101105.63
2022-11-29T07:53:57.204Z,101103.09
2022-11-29T07:58:59.341Z,101111.66
2022-11-29T08:04:01.391Z,101101.72
2022-11-29T08:09:03.950Z,101109.97
2022-11-29T08:14:06.328Z,101123.94
2022-11-29T08:19:08.313Z,101112.56
2022-11-29T08:24:10.458Z,101100.66
2022-11-29T08:29:12.551Z,101100.97
2022-11-29T08:34:14.558Z,101118.63
2022-11-29T08:39:17.083Z,101106.00
2022-11-29T08:44:19.116Z,101107.28
2022-11-29T08:49:21.297Z,101112.25
2022-11-29T08:54:23.313Z,101113.22
2022-11-29T08:59:25.306Z,101115.63
2022-11-29T09:04:27.365Z,101122.47
2022-11-29T09:09:29.413Z,101119.13
2022-11-29T09:14:31.497Z,101125.91
2022-11-29T09:19:33.562Z,101113.28
2022-11-29T09:24:35.585Z,101101.81
2022-11-29T09:29:37.870Z,101109.06
2022-11-29T09:34:42.266Z,101100.09
2022-11-29T09:39:44.851Z,101088.59
2022-11-29T09:45:09.988Z,101104.78
2022-11-29T09:50:30.613Z,101096.91
2022-11-29T09:56:04.165Z,101094.66
2022-11-29T10:01:10.913Z,101101.63
2022-11-29T10:06:36.750Z,101083.72
2022-11-29T10:11:42.197Z,101089.88
2022-11-29T10:16:52.766Z,101080.06
2022-11-29T10:22:01.970Z,101075.81
2022-11-29T10:27:14.015Z,101071.28
2022-11-29T10:32:16.741Z,101059.28
2022-11-29T10:37:21.510Z,101064.44
2022-11-29T10:42:44.855Z,101068.13
2022-11-29T10:47:50.134Z,101051.50
2022-11-29T10:52:59.872Z,101046.06
2022-11-29T10:58:13.102Z,101044.47
2022-11-29T11:03:23.903Z,101051.59
2022-11-29T11:08:27.657Z,101048.09
2022-11-29T11:13:31.934Z,101037.75
2022-11-29T11:18:34.298Z,101045.12
2022-11-29T11:23:42.884Z,101047.91
2022-11-29T11:29:00.271Z,101045.34
2022-11-29T11:34:35.156Z,101038.13
2022-11-29T11:39:37.179Z,101053.66
2022-11-29T11:44:49.430Z,101037.56
2022-11-29T11:50:00.352Z,101049.09
2022-11-29T11:55:07.134Z,101048.72
2022-11-29T12:01:02.959Z,101047.53
2022-11-29T12:06:14.816Z,101042.44
2022-11-29T12:11:18.755Z,101042.00
2022-11-29T12:16:34.577Z,101038.84
2022-11-29T12:21:42.379Z,101034.41
2022-11-29T12:27:00.535Z,101038.00
2022-11-29T12:32:24.677Z,101044.28
2022-11-29T12:37:39.910Z,101036.06
2022-11-29T12:43:10.832Z,101023.13
2022-11-29T12:48:28.128Z,101020.28
2022-11-29T12:53:57.814Z,101017.41
2022-11-29T12:59:20.846Z,101013.25
2022-11-29T13:04:59.872Z,101027.84
2022-11-29T13:10:21.135Z,101031.06
2022-11-29T13:16:01.228Z,101034.06
2022-11-29T13:21:20.174Z,101033.13
2022-11-29T13:26:25.666Z,101010.47
2022-11-29T13:31:28.188Z,101028.19
2022-11-29T13:37:06.640Z,101035.78
2022-11-29T13:42:45.451Z,101025.16
2022-11-29T13:47:56.057Z,101026.16
2022-11-29T13:53:04.519Z,101028.81
2022-11-29T13:58:19.080Z,101024.84
2022-11-29T14:03:24.032Z,101021.81
2022-11-29T14:09:02.391Z,101032.06
2022-11-29T14:14:07.587Z,101022.47
2022-11-29T14:19:09.929Z,101030.13
2022-11-29T14:24:36.977Z,101031.13
2022-11-29T14:29:50.943Z,101025.09
2022-11-29T14:35:11.472Z,101030.37
2022-11-29T14:40:26.611Z,101024.56
2022-11-29T14:45:35.196Z,101024.50
2022-11-29T14:50:40.423Z,101017.28
2022-11-29T14:55:43.019Z,101013.75
2022-11-29T15:00:47.685Z,101024.09
2022-11-29T15:06:12.212Z,101024.28
2022-11-29T15:11:33.905Z,101014.13
2022-11-29T15:17:07.260Z,101025.50
2022-11-29T15:22:27.661Z,101031.13
2022-11-29T15:27:29.704Z,101020.50
2022-11-29T15:32:32.702Z,101028.09
2022-11-29T15:37:35.501Z,101022.81
2022-11-29T15:42:57.980Z,101029.75
2022-11-29T15:48:16.135Z,101038.81
2022-11-29T15:53:38.806Z,101029.09
2022-11-29T15:58:41.254Z,101022.38
2022-11-29T16:03:46.362Z,101039.28
2022-11-29T16:08:49.973Z,101017.09
2022-11-29T16:14:03.263Z,101014.62
2022-11-29T16:19:30.458Z,101031.72
2022-11-29T16:24:34.587Z,101048.38
2022-11-29T16:29:41.558Z,101030.06
2022-11-29T16:34:44.750Z,101037.28
2022-11-29T16:39:49.645Z,101045.47
2022-11-29T16:44:58.144Z,101051.31
2022-11-29T16:50:03.050Z,101053.72
2022-11-29T16:55:05.298Z,101050.75
2022-11-29T17:00:23.224Z,101057.25
2022-11-29T17:05:25.982Z,101066.28
2022-11-29T17:10:28.870Z,101053.38
2022-11-29T17:15:30.953Z,101071.19
2022-11-29T17:20:33.871Z,101078.78
2022-11-29T17:25:36.243Z,101080.72
2022-11-29T17:30:38.277Z,101085.91
2022-11-29T17:35:40.293Z,101078.69
2022-11-29T17:40:42.496Z,101089.31
2022-11-29T17:45:44.532Z,101088.75
2022-11-29T17:50:46.646Z,101076.53
2022-11-29T17:55:48.806Z,101084.87
2022-11-29T18:00:50.876Z,101085.78
2022-11-29T18:05:52.898Z,101094.66
2022-11-29T18:11:09.934Z,101080.72
2022-11-29T18:16:17.901Z,101093.19
2022-11-29T18:21:19.937Z,101089.28
2022-11-29T18:26:24.146Z,101087.16
2022-11-29T18:31:28.978Z,101080.06
2022-11-29T18:36:34.121Z,101095.16
2022-11-29T18:41:37.815Z,101081.66
2022-11-29T18:46:43.034Z,101091.25
2022-11-29T18:51:46.310Z,101087.00
2022-11-29T18:56:50.728Z,101086.34
2022-11-29T19:01:52.899Z,101094.94
2022-11-29T19:06:54.967Z,101101.50
2022-11-29T19:11:56.999Z,101082.03
2022-11-29T19:16:59.049Z,101108.63
2022-11-29T19:22:01.064Z,101101.63
2022-11-29T19:27:04.663Z,101103.81
2022-11-29T19:32:08.506Z,101098.47
2022-11-29T19:37:10.582Z,101092.19
2022-11-29T19:42:12.762Z,101099.59
2022-11-29T19:47:14.776Z,101107.44
2022-11-29T19:52:16.838Z,101091.34
2022-11-29T19:57:18.826Z,101094.41
